Holden Beach, North Carolina
Current Conditions -  °F | °C
As of 7:35 AM on Tuesday 27 Jan 2015 (Local Time) from KSUT Reporting Station
Overcast Overcast  
Wind Chill: 33°   Ceiling: 3000
Heat Index: 40°   Visibility: 10mi
Dew Point: 33°   Wind: 12mph
Humidity: 74%   Direction: 330°NNW
Pressure: 29.77"   Gusts: NA
Location:  34.0499°N, 78.3076°W
Report Text: KSUT 271235Z AUTO 33010KT 10SM SCT024 OVC030 05/00 A2977 RMK AO2 T00460004
Loading
Personal Weather Stations






























Interactive Weather Map New forecast layout! Learn more

10-Day Weather Forecast

Advertisements
Track Severe Weather on mobile